sensor_id;sensor_type;location;lat;lon;timestamp;pressure;altitude;pressure_sealevel;temperature;humidity
30856;BME280;17570;0.000;0.000;2023-11-22T00:00:59;96254.11;;;15.71;43.02
30856;BME280;17570;0.000;0.000;2023-11-22T00:03:27;96248.37;;;15.76;42.98
30856;BME280;17570;0.000;0.000;2023-11-22T00:05:54;96244.30;;;15.73;43.15
30856;BME280;17570;0.000;0.000;2023-11-22T00:08:22;96262.80;;;15.72;43.37
30856;BME280;17570;0.000;0.000;2023-11-22T00:10:50;96267.73;;;15.67;43.33
30856;BME280;17570;0.000;0.000;2023-11-22T00:13:17;96270.17;;;15.68;43.39
30856;BME280;17570;0.000;0.000;2023-11-22T00:15:45;96263.77;;;15.71;43.02
30856;BME280;17570;0.000;0.000;2023-11-22T00:18:12;96261.63;;;15.74;43.01
30856;BME280;17570;0.000;0.000;2023-11-22T00:20:40;96278.14;;;15.75;43.08
30856;BME280;17570;0.000;0.000;2023-11-22T00:23:07;96278.02;;;15.68;43.22
30856;BME280;17570;0.000;0.000;2023-11-22T00:25:36;96269.05;;;15.54;43.33
30856;BME280;17570;0.000;0.000;2023-11-22T00:28:03;96271.64;;;15.63;43.24
30856;BME280;17570;0.000;0.000;2023-11-22T00:30:32;96276.03;;;15.70;43.11
30856;BME280;17570;0.000;0.000;2023-11-22T00:33:00;96278.53;;;15.64;43.27
30856;BME280;17570;0.000;0.000;2023-11-22T00:35:28;96278.34;;;15.65;43.20
30856;BME280;17570;0.000;0.000;2023-11-22T00:37:56;96279.83;;;15.68;43.25
30856;BME280;17570;0.000;0.000;2023-11-22T00:40:24;96281.93;;;15.72;43.05
30856;BME280;17570;0.000;0.000;2023-11-22T00:42:52;96276.06;;;15.62;43.58
30856;BME280;17570;0.000;0.000;2023-11-22T00:45:19;96273.30;;;15.64;43.35
30856;BME280;17570;0.000;0.000;2023-11-22T00:47:48;96268.70;;;15.66;43.47
30856;BME280;17570;0.000;0.000;2023-11-22T00:50:16;96278.02;;;15.60;43.51
30856;BME280;17570;0.000;0.000;2023-11-22T00:52:47;96283.13;;;15.53;43.38
30856;BME280;17570;0.000;0.000;2023-11-22T00:55:15;96279.03;;;15.51;43.95
30856;BME280;17570;0.000;0.000;2023-11-22T00:57:42;96284.45;;;15.49;43.95
30856;BME280;17570;0.000;0.000;2023-11-22T01:00:10;96286.55;;;15.54;43.67
30856;BME280;17570;0.000;0.000;2023-11-22T01:02:38;96285.05;;;15.60;43.74
30856;BME280;17570;0.000;0.000;2023-11-22T01:05:09;96290.11;;;15.61;43.52
30856;BME280;17570;0.000;0.000;2023-11-22T01:07:38;96290.91;;;15.62;43.75
30856;BME280;17570;0.000;0.000;2023-11-22T01:10:08;96281.30;;;15.62;43.55
30856;BME280;17570;0.000;0.000;2023-11-22T01:12:36;96276.09;;;15.54;44.31
30856;BME280;17570;0.000;0.000;2023-11-22T01:15:04;96280.81;;;15.59;43.80
30856;BME280;17570;0.000;0.000;2023-11-22T01:17:32;96279.34;;;15.64;43.67
30856;BME280;17570;0.000;0.000;2023-11-22T01:20:01;96270.50;;;15.65;43.76
30856;BME280;17570;0.000;0.000;2023-11-22T01:22:29;96275.05;;;15.71;43.68
30856;BME280;17570;0.000;0.000;2023-11-22T01:24:58;96276.73;;;15.64;44.25
30856;BME280;17570;0.000;0.000;2023-11-22T01:27:27;96284.88;;;15.61;43.96
30856;BME280;17570;0.000;0.000;2023-11-22T01:29:55;96285.20;;;15.66;43.83
30856;BME280;17570;0.000;0.000;2023-11-22T01:32:23;96285.06;;;15.68;43.74
30856;BME280;17570;0.000;0.000;2023-11-22T01:34:50;96288.67;;;15.67;43.95
30856;BME280;17570;0.000;0.000;2023-11-22T01:37:18;96291.61;;;15.64;44.19
30856;BME280;17570;0.000;0.000;2023-11-22T01:39:46;96291.91;;;15.69;43.84
30856;BME280;17570;0.000;0.000;2023-11-22T01:42:15;96284.36;;;15.74;43.60
30856;BME280;17570;0.000;0.000;2023-11-22T01:44:43;96287.97;;;15.73;43.80
30856;BME280;17570;0.000;0.000;2023-11-22T01:47:10;96282.27;;;15.69;43.76
30856;BME280;17570;0.000;0.000;2023-11-22T01:49:38;96277.03;;;15.69;43.81
30856;BME280;17570;0.000;0.000;2023-11-22T01:52:05;96277.15;;;15.76;43.78
30856;BME280;17570;0.000;0.000;2023-11-22T01:54:33;96273.09;;;15.73;43.98
30856;BME280;17570;0.000;0.000;2023-11-22T01:57:01;96259.70;;;15.68;44.12
30856;BME280;17570;0.000;0.000;2023-11-22T01:59:29;96267.89;;;15.65;43.85
30856;BME280;17570;0.000;0.000;2023-11-22T02:01:58;96269.69;;;15.65;43.84
30856;BME280;17570;0.000;0.000;2023-11-22T02:04:25;96270.50;;;15.65;43.93
30856;BME280;17570;0.000;0.000;2023-11-22T02:06:53;96264.61;;;15.63;44.09
30856;BME280;17570;0.000;0.000;2023-11-22T02:09:20;96258.27;;;15.58;44.23
30856;BME280;17570;0.000;0.000;2023-11-22T02:11:48;96251.86;;;15.60;44.06
30856;BME280;17570;0.000;0.000;2023-11-22T02:14:16;96255.80;;;15.64;43.98
30856;BME280;17570;0.000;0.000;2023-11-22T02:16:43;96260.37;;;15.62;44.19
30856;BME280;17570;0.000;0.000;2023-11-22T02:19:17;96259.89;;;15.67;43.83
30856;BME280;17570;0.000;0.000;2023-11-22T02:21:40;96276.22;;;15.69;43.73
30856;BME280;17570;0.000;0.000;2023-11-22T02:24:08;96272.45;;;15.63;43.88
30856;BME280;17570;0.000;0.000;2023-11-22T02:26:37;96272.30;;;15.65;44.07
30856;BME280;17570;0.000;0.000;2023-11-22T02:29:05;96265.75;;;15.61;44.68
30856;BME280;17570;0.000;0.000;2023-11-22T02:31:33;96268.06;;;15.55;44.58
30856;BME280;17570;0.000;0.000;2023-11-22T02:34:00;96272.97;;;15.67;44.27
30856;BME280;17570;0.000;0.000;2023-11-22T02:36:28;96264.76;;;15.70;44.19
30856;BME280;17570;0.000;0.000;2023-11-22T02:38:57;96266.74;;;15.68;44.13
30856;BME280;17570;0.000;0.000;2023-11-22T02:41:26;96265.75;;;15.61;44.48
30856;BME280;17570;0.000;0.000;2023-11-22T02:43:56;96265.77;;;15.52;44.37
30856;BME280;17570;0.000;0.000;2023-11-22T02:46:23;96259.59;;;15.53;44.29
30856;BME280;17570;0.000;0.000;2023-11-22T02:48:52;96264.31;;;15.58;44.33
30856;BME280;17570;0.000;0.000;2023-11-22T02:51:22;96262.32;;;15.60;44.27
30856;BME280;17570;0.000;0.000;2023-11-22T02:53:50;96253.30;;;15.71;45.26
30856;BME280;17570;0.000;0.000;2023-11-22T02:56:17;96245.48;;;15.94;46.36
30856;BME280;17570;0.000;0.000;2023-11-22T02:58:45;96251.38;;;15.96;45.86
30856;BME280;17570;0.000;0.000;2023-11-22T03:01:12;96243.05;;;15.92;45.96
30856;BME280;17570;0.000;0.000;2023-11-22T03:03:40;96247.48;;;15.92;45.15
30856;BME280;17570;0.000;0.000;2023-11-22T03:06:08;96249.28;;;15.91;45.10
30856;BME280;17570;0.000;0.000;2023-11-22T03:08:36;96247.30;;;15.93;44.99
30856;BME280;17570;0.000;0.000;2023-11-22T03:11:04;96247.00;;;15.88;45.11
30856;BME280;17570;0.000;0.000;2023-11-22T03:13:31;96245.05;;;15.90;44.57
30856;BME280;17570;0.000;0.000;2023-11-22T03:15:59;96234.58;;;15.90;44.58
30856;BME280;17570;0.000;0.000;2023-11-22T03:18:27;96239.96;;;15.89;44.47
30856;BME280;17570;0.000;0.000;2023-11-22T03:20:54;96241.28;;;15.85;44.59
30856;BME280;17570;0.000;0.000;2023-11-22T03:23:22;96242.28;;;15.84;44.65
30856;BME280;17570;0.000;0.000;2023-11-22T03:25:49;96246.08;;;15.81;45.08
30856;BME280;17570;0.000;0.000;2023-11-22T03:28:17;96262.80;;;15.72;45.39
30856;BME280;17570;0.000;0.000;2023-11-22T03:30:44;96269.99;;;15.70;45.10
30856;BME280;17570;0.000;0.000;2023-11-22T03:33:12;96259.83;;;15.75;44.69
30856;BME280;17570;0.000;0.000;2023-11-22T03:35:41;96259.83;;;15.75;44.56
30856;BME280;17570;0.000;0.000;2023-11-22T03:38:08;96255.41;;;15.75;44.55
30856;BME280;17570;0.000;0.000;2023-11-22T03:40:36;96258.83;;;15.76;44.66
30856;BME280;17570;0.000;0.000;2023-11-22T03:43:04;96262.84;;;15.64;45.13
30856;BME280;17570;0.000;0.000;2023-11-22T03:45:32;96254.66;;;15.59;44.81
30856;BME280;17570;0.000;0.000;2023-11-22T03:48:00;96259.08;;;15.58;44.73
30856;BME280;17570;0.000;0.000;2023-11-22T03:50:28;96265.45;;;15.55;44.70
30856;BME280;17570;0.000;0.000;2023-11-22T03:52:55;96262.14;;;15.62;44.53
30856;BME280;17570;0.000;0.000;2023-11-22T03:55:23;96262.50;;;15.67;44.43
30856;BME280;17570;0.000;0.000;2023-11-22T03:57:50;96266.08;;;15.66;44.64
30856;BME280;17570;0.000;0.000;2023-11-22T04:00:18;96265.13;;;15.67;44.40
30856;BME280;17570;0.000;0.000;2023-11-22T04:02:46;96274.92;;;15.65;44.51
30856;BME280;17570;0.000;0.000;2023-11-22T04:05:14;96277.69;;;15.63;44.41
30856;BME280;17570;0.000;0.000;2023-11-22T04:07:41;96274.27;;;15.63;44.35
30856;BME280;17570;0.000;0.000;2023-11-22T04:10:09;96280.45;;;15.62;44.41
30856;BME280;17570;0.000;0.000;2023-11-22T04:12:36;96282.44;;;15.60;44.44
30856;BME280;17570;0.000;0.000;2023-11-22T04:15:04;96292.59;;;15.54;44.91
30856;BME280;17570;0.000;0.000;2023-11-22T04:17:33;96289.83;;;15.48;44.88
30856;BME280;17570;0.000;0.000;2023-11-22T04:20:04;96300.62;;;15.53;44.58
30856;BME280;17570;0.000;0.000;2023-11-22T04:22:33;96299.78;;;15.52;44.58
30856;BME280;17570;0.000;0.000;2023-11-22T04:25:01;96297.16;;;15.52;44.65
30856;BME280;17570;0.000;0.000;2023-11-22T04:27:28;96299.47;;;15.47;44.77
30856;BME280;17570;0.000;0.000;2023-11-22T04:29:56;96300.14;;;15.49;44.66
30856;BME280;17570;0.000;0.000;2023-11-22T04:32:23;96306.69;;;15.45;44.64
30856;BME280;17570;0.000;0.000;2023-11-22T04:34:51;96296.91;;;15.39;44.88
30856;BME280;17570;0.000;0.000;2023-11-22T04:37:19;96299.83;;;15.44;44.97
30856;BME280;17570;0.000;0.000;2023-11-22T04:39:48;96300.79;;;15.43;44.90
30856;BME280;17570;0.000;0.000;2023-11-22T04:42:17;96302.27;;;15.46;44.80
30856;BME280;17570;0.000;0.000;2023-11-22T04:44:44;96302.09;;;15.47;44.86
30856;BME280;17570;0.000;0.000;2023-11-22T04:47:12;96305.37;;;15.49;44.70
30856;BME280;17570;0.000;0.000;2023-11-22T04:49:40;96303.75;;;15.48;44.85
30856;BME280;17570;0.000;0.000;2023-11-22T04:52:07;96304.55;;;15.49;44.79
30856;BME280;17570;0.000;0.000;2023-11-22T04:54:35;96309.48;;;15.44;45.12
30856;BME280;17570;0.000;0.000;2023-11-22T04:57:02;96320.90;;;15.43;45.45
30856;BME280;17570;0.000;0.000;2023-11-22T04:59:30;96324.29;;;15.60;46.42
30856;BME280;17570;0.000;0.000;2023-11-22T05:01:58;96331.77;;;15.79;46.96
30856;BME280;17570;0.000;0.000;2023-11-22T05:04:26;96339.29;;;15.82;46.77
30856;BME280;17570;0.000;0.000;2023-11-22T05:06:54;96337.66;;;15.81;46.18
30856;BME280;17570;0.000;0.000;2023-11-22T05:09:21;96336.82;;;15.80;45.83
30856;BME280;17570;0.000;0.000;2023-11-22T05:11:49;96344.22;;;15.77;45.87
30856;BME280;17570;0.000;0.000;2023-11-22T05:14:18;96347.48;;;15.71;45.74
30856;BME280;17570;0.000;0.000;2023-11-22T05:16:46;96350.28;;;15.69;45.49
30856;BME280;17570;0.000;0.000;2023-11-22T05:19:14;96363.20;;;15.63;45.74
30856;BME280;17570;0.000;0.000;2023-11-22T05:21:41;96367.77;;;15.61;45.23
30856;BME280;17570;0.000;0.000;2023-11-22T05:24:09;96369.39;;;15.62;45.44
30856;BME280;17570;0.000;0.000;2023-11-22T05:26:36;96373.36;;;15.58;45.64
30856;BME280;17570;0.000;0.000;2023-11-22T05:29:04;96372.70;;;15.55;45.70
30856;BME280;17570;0.000;0.000;2023-11-22T05:31:32;96364.16;;;15.62;45.35
30856;BME280;17570;0.000;0.000;2023-11-22T05:33:59;96373.00;;;15.61;45.24
30856;BME280;17570;0.000;0.000;2023-11-22T05:36:27;96374.20;;;15.42;45.51
30856;BME280;17570;0.000;0.000;2023-11-22T05:38:54;96379.41;;;15.50;45.49
30856;BME280;17570;0.000;0.000;2023-11-22T05:41:21;96377.12;;;15.47;45.45
30856;BME280;17570;0.000;0.000;2023-11-22T05:43:49;96382.52;;;15.53;45.46
30856;BME280;17570;0.000;0.000;2023-11-22T05:46:17;96377.29;;;15.53;45.63
30856;BME280;17570;0.000;0.000;2023-11-22T05:48:46;96378.59;;;15.58;45.63
30856;BME280;17570;0.000;0.000;2023-11-22T05:51:13;96379.55;;;15.56;45.92
30856;BME280;17570;0.000;0.000;2023-11-22T05:53:41;96380.86;;;15.52;46.17
30856;BME280;17570;0.000;0.000;2023-11-22T05:56:08;96389.03;;;15.74;47.70
30856;BME280;17570;0.000;0.000;2023-11-22T05:58:36;96395.69;;;15.85;47.44
30856;BME280;17570;0.000;0.000;2023-11-22T06:01:09;96402.73;;;15.84;47.66
30856;BME280;17570;0.000;0.000;2023-11-22T06:03:34;96401.78;;;15.77;47.47
30856;BME280;17570;0.000;0.000;2023-11-22T06:06:02;96409.28;;;15.80;47.16
30856;BME280;17570;0.000;0.000;2023-11-22T06:08:29;96407.66;;;15.79;46.89
30856;BME280;17570;0.000;0.000;2023-11-22T06:10:57;96413.55;;;15.81;46.94
30856;BME280;17570;0.000;0.000;2023-11-22T06:13:26;96417.30;;;15.78;47.09
30856;BME280;17570;0.000;0.000;2023-11-22T06:15:54;96422.36;;;15.80;46.76
30856;BME280;17570;0.000;0.000;2023-11-22T06:18:21;96439.38;;;15.76;47.04
30856;BME280;17570;0.000;0.000;2023-11-22T06:20:49;96433.33;;;15.75;46.80
30856;BME280;17570;0.000;0.000;2023-11-22T06:23:16;96438.73;;;15.82;47.25
30856;BME280;17570;0.000;0.000;2023-11-22T06:25:44;96424.56;;;16.07;47.77
30856;BME280;17570;0.000;0.000;2023-11-22T06:28:11;96441.25;;;16.15;47.51
30856;BME280;17570;0.000;0.000;2023-11-22T06:30:39;96438.95;;;16.12;47.43
30856;BME280;17570;0.000;0.000;2023-11-22T06:33:06;96449.13;;;16.06;47.17
30856;BME280;17570;0.000;0.000;2023-11-22T06:35:34;96450.26;;;16.04;47.20
30856;BME280;17570;0.000;0.000;2023-11-22T06:38:02;96456.34;;;16.04;46.95
30856;BME280;17570;0.000;0.000;2023-11-22T06:40:30;96467.31;;;16.00;46.98
30856;BME280;17570;0.000;0.000;2023-11-22T06:42:57;96469.76;;;16.01;46.69
30856;BME280;17570;0.000;0.000;2023-11-22T06:45:25;96467.64;;;15.97;46.61
30856;BME280;17570;0.000;0.000;2023-11-22T06:47:52;96468.14;;;15.92;46.91
30856;BME280;17570;0.000;0.000;2023-11-22T06:50:22;96474.50;;;15.98;46.75
30856;BME280;17570;0.000;0.000;2023-11-22T06:52:49;96472.23;;;15.95;46.35
30856;BME280;17570;0.000;0.000;2023-11-22T06:55:19;96476.48;;;15.96;46.46
30856;BME280;17570;0.000;0.000;2023-11-22T06:57:46;96484.83;;;15.99;46.36
30856;BME280;17570;0.000;0.000;2023-11-22T07:00:14;96483.48;;;16.03;46.29
30856;BME280;17570;0.000;0.000;2023-11-22T07:02:43;96488.57;;;16.05;46.28
30856;BME280;17570;0.000;0.000;2023-11-22T07:05:10;96481.04;;;16.02;46.37
30856;BME280;17570;0.000;0.000;2023-11-22T07:07:38;96491.52;;;16.02;46.36
30856;BME280;17570;0.000;0.000;2023-11-22T07:10:06;96497.25;;;15.97;46.51
30856;BME280;17570;0.000;0.000;2023-11-22T07:12:33;96497.56;;;16.02;46.37
30856;BME280;17570;0.000;0.000;2023-11-22T07:15:01;96493.14;;;16.03;46.49
30856;BME280;17570;0.000;0.000;2023-11-22T07:17:29;96502.47;;;16.05;46.42
30856;BME280;17570;0.000;0.000;2023-11-22T07:19:56;96505.09;;;16.05;46.46
30856;BME280;17570;0.000;0.000;2023-11-22T07:22:24;96511.95;;;16.06;46.39
30856;BME280;17570;0.000;0.000;2023-11-22T07:24:53;96510.47;;;16.04;46.15
30856;BME280;17570;0.000;0.000;2023-11-22T07:27:25;96512.95;;;16.05;46.19
30856;BME280;17570;0.000;0.000;2023-11-22T07:29:52;96519.17;;;16.04;46.41
30856;BME280;17570;0.000;0.000;2023-11-22T07:32:20;96518.18;;;16.05;46.39
30856;BME280;17570;0.000;0.000;2023-11-22T07:34:47;96525.86;;;16.07;46.17
30856;BME280;17570;0.000;0.000;2023-11-22T07:37:15;96534.20;;;16.11;46.32
30856;BME280;17570;0.000;0.000;2023-11-22T07:39:44;96543.20;;;16.08;46.37
30856;BME280;17570;0.000;0.000;2023-11-22T07:42:12;96550.41;;;16.06;46.36
30856;BME280;17570;0.000;0.000;2023-11-22T07:44:39;96545.66;;;16.10;46.24
30856;BME280;17570;0.000;0.000;2023-11-22T07:47:08;96563.33;;;16.07;46.48
30856;BME280;17570;0.000;0.000;2023-11-22T07:49:40;96563.00;;;16.19;47.83
30856;BME280;17570;0.000;0.000;2023-11-22T07:52:08;96565.05;;;16.48;48.30
30856;BME280;17570;0.000;0.000;2023-11-22T07:54:37;96570.77;;;16.51;47.85
30856;BME280;17570;0.000;0.000;2023-11-22T07:57:05;96570.77;;;16.51;47.67
30856;BME280;17570;0.000;0.000;2023-11-22T07:59:33;96570.77;;;16.51;47.36
30856;BME280;17570;0.000;0.000;2023-11-22T08:02:01;96576.02;;;16.43;47.24
30856;BME280;17570;0.000;0.000;2023-11-22T08:04:28;96574.53;;;16.49;46.79
30856;BME280;17570;0.000;0.000;2023-11-22T08:06:57;96577.64;;;16.52;46.65
30856;BME280;17570;0.000;0.000;2023-11-22T08:09:25;96582.89;;;16.44;46.57
30856;BME280;17570;0.000;0.000;2023-11-22T08:11:53;96589.44;;;16.48;46.81
30856;BME280;17570;0.000;0.000;2023-11-22T08:14:21;96591.88;;;16.50;46.50
30856;BME280;17570;0.000;0.000;2023-11-22T08:16:48;96596.25;;;16.74;47.83
30856;BME280;17570;0.000;0.000;2023-11-22T08:19:16;96593.27;;;16.85;47.83
30856;BME280;17570;0.000;0.000;2023-11-22T08:21:43;96587.85;;;16.87;47.61
30856;BME280;17570;0.000;0.000;2023-11-22T08:24:11;96593.76;;;16.89;47.18
30856;BME280;17570;0.000;0.000;2023-11-22T08:26:39;96590.78;;;16.92;47.14
30856;BME280;17570;0.000;0.000;2023-11-22T08:29:07;96594.39;;;16.91;47.01
30856;BME280;17570;0.000;0.000;2023-11-22T08:31:34;96584.91;;;16.90;46.93
30856;BME280;17570;0.000;0.000;2023-11-22T08:34:02;96588.00;;;16.93;46.91
30856;BME280;17570;0.000;0.000;2023-11-22T08:36:33;96602.74;;;16.94;46.92
30856;BME280;17570;0.000;0.000;2023-11-22T08:39:01;96605.06;;;16.89;47.12
30856;BME280;17570;0.000;0.000;2023-11-22T08:41:30;96602.08;;;16.92;47.08
30856;BME280;17570;0.000;0.000;2023-11-22T08:43:58;96601.44;;;16.90;47.12
30856;BME280;17570;0.000;0.000;2023-11-22T08:46:26;96607.32;;;16.92;47.32
30856;BME280;17570;0.000;0.000;2023-11-22T08:48:54;96605.36;;;16.94;47.26
30856;BME280;17570;0.000;0.000;2023-11-22T08:51:23;96605.84;;;16.98;47.06
30856;BME280;17570;0.000;0.000;2023-11-22T08:53:50;96610.42;;;16.96;47.15
30856;BME280;17570;0.000;0.000;2023-11-22T08:56:17;96606.30;;;17.01;46.92
30856;BME280;17570;0.000;0.000;2023-11-22T08:58:47;96608.92;;;17.01;46.89
30856;BME280;17570;0.000;0.000;2023-11-22T09:01:14;96604.34;;;17.03;47.04
30856;BME280;17570;0.000;0.000;2023-11-22T09:03:42;96611.03;;;17.06;47.06
30856;BME280;17570;0.000;0.000;2023-11-22T09:06:10;96616.58;;;17.11;46.85
30856;BME280;17570;0.000;0.000;2023-11-22T09:08:37;96608.70;;;17.11;46.86
30856;BME280;17570;0.000;0.000;2023-11-22T09:11:05;96622.81;;;17.10;46.65
30856;BME280;17570;0.000;0.000;2023-11-22T09:13:33;96615.77;;;17.11;46.62
30856;BME280;17570;0.000;0.000;2023-11-22T09:16:01;96615.95;;;17.09;46.59
30856;BME280;17570;0.000;0.000;2023-11-22T09:18:31;96620.05;;;17.12;46.43
30856;BME280;17570;0.000;0.000;2023-11-22T09:20:59;96619.20;;;17.11;46.51
30856;BME280;17570;0.000;0.000;2023-11-22T09:23:26;96630.98;;;17.15;47.07
30856;BME280;17570;0.000;0.000;2023-11-22T09:25:54;96639.52;;;17.17;46.67
30856;BME280;17570;0.000;0.000;2023-11-22T09:28:21;96635.42;;;17.15;46.89
30856;BME280;17570;0.000;0.000;2023-11-22T09:30:49;96625.41;;;17.18;46.86
30856;BME280;17570;0.000;0.000;2023-11-22T09:33:17;96634.27;;;17.17;46.88
30856;BME280;17570;0.000;0.000;2023-11-22T09:35:45;96627.52;;;17.23;46.89
30856;BME280;17570;0.000;0.000;2023-11-22T09:38:14;96623.09;;;17.23;46.86
30856;BME280;17570;0.000;0.000;2023-11-22T09:40:42;96623.78;;;17.17;46.88
30856;BME280;17570;0.000;0.000;2023-11-22T09:43:12;96629.84;;;17.18;46.93
30856;BME280;17570;0.000;0.000;2023-11-22T09:45:41;96621.97;;;17.18;47.07
30856;BME280;17570;0.000;0.000;2023-11-22T09:48:13;96622.78;;;17.18;47.19
30856;BME280;17570;0.000;0.000;2023-11-22T09:53:22;96631.77;;;17.24;46.97
30856;BME280;17570;0.000;0.000;2023-11-22T09:55:48;96643.47;;;17.13;47.04
30856;BME280;17570;0.000;0.000;2023-11-22T09:58:16;96646.69;;;17.23;46.88
30856;BME280;17570;0.000;0.000;2023-11-22T10:00:44;96649.20;;;16.37;47.56
30856;BME280;17570;0.000;0.000;2023-11-22T10:04:14;96653.59;;;13.64;55.35
30856;BME280;17570;0.000;0.000;2023-11-22T10:06:41;96658.20;;;13.88;56.77
30856;BME280;17570;0.000;0.000;2023-11-22T10:09:11;96655.11;;;15.73;51.88
30856;BME280;17570;0.000;0.000;2023-11-22T10:11:40;96643.75;;;16.71;49.23
30856;BME280;17570;0.000;0.000;2023-11-22T10:14:09;96654.56;;;17.23;48.07
30856;BME280;17570;0.000;0.000;2023-11-22T10:16:37;96651.80;;;17.48;47.51
30856;BME280;17570;0.000;0.000;2023-11-22T10:19:04;96654.82;;;17.68;47.11
30856;BME280;17570;0.000;0.000;2023-11-22T10:21:34;96655.25;;;17.79;46.75
30856;BME280;17570;0.000;0.000;2023-11-22T10:24:02;96656.83;;;17.89;46.70
30856;BME280;17570;0.000;0.000;2023-11-22T10:26:30;96661.66;;;18.00;46.36
30856;BME280;17570;0.000;0.000;2023-11-22T10:28:58;96661.79;;;18.06;46.17
30856;BME280;17570;0.000;0.000;2023-11-22T10:31:25;96667.14;;;18.13;45.92
30856;BME280;17570;0.000;0.000;2023-11-22T10:33:54;96662.02;;;18.20;45.78
30856;BME280;17570;0.000;0.000;2023-11-22T10:36:25;96665.73;;;18.25;45.73
30856;BME280;17570;0.000;0.000;2023-11-22T10:38:52;96660.77;;;18.30;45.43
30856;BME280;17570;0.000;0.000;2023-11-22T10:41:21;96656.27;;;18.39;45.23
30856;BME280;17570;0.000;0.000;2023-11-22T10:43:51;96659.52;;;18.41;45.64
30856;BME280;17570;0.000;0.000;2023-11-22T10:46:21;96663.31;;;18.76;46.73
30856;BME280;17570;0.000;0.000;2023-11-22T10:48:48;96659.06;;;18.90;47.21
30856;BME280;17570;0.000;0.000;2023-11-22T10:51:16;96664.23;;;18.98;46.85
30856;BME280;17570;0.000;0.000;2023-11-22T10:53:48;96666.48;;;19.01;46.44
30856;BME280;17570;0.000;0.000;2023-11-22T10:56:17;96663.30;;;19.06;46.05
30856;BME280;17570;0.000;0.000;2023-11-22T10:58:49;96655.41;;;19.06;45.79
30856;BME280;17570;0.000;0.000;2023-11-22T11:01:19;96641.71;;;19.10;45.45
30856;BME280;17570;0.000;0.000;2023-11-22T11:04:00;96651.62;;;19.08;45.35
30856;BME280;17570;0.000;0.000;2023-11-22T11:06:28;96647.98;;;19.09;45.05
30856;BME280;17570;0.000;0.000;2023-11-22T11:08:58;96647.52;;;19.06;45.07
30856;BME280;17570;0.000;0.000;2023-11-22T11:11:29;96651.62;;;19.08;44.90
30856;BME280;17570;0.000;0.000;2023-11-22T11:13:59;96653.70;;;19.13;44.57
30856;BME280;17570;0.000;0.000;2023-11-22T11:16:27;96658.22;;;19.19;44.57
30856;BME280;17570;0.000;0.000;2023-11-22T11:18:55;96661.11;;;19.24;44.36
30856;BME280;17570;0.000;0.000;2023-11-22T11:21:22;96658.94;;;19.28;44.30
30856;BME280;17570;0.000;0.000;2023-11-22T11:23:51;96653.31;;;19.31;44.20
30856;BME280;17570;0.000;0.000;2023-11-22T11:26:21;96658.39;;;19.32;44.15
30856;BME280;17570;0.000;0.000;2023-11-22T11:28:49;96662.19;;;19.30;44.21
30856;BME280;17570;0.000;0.000;2023-11-22T11:31:20;96671.55;;;19.32;43.99
30856;BME280;17570;0.000;0.000;2023-11-22T11:38:58;96675.54;;;19.28;44.22
30856;BME280;17570;0.000;0.000;2023-11-22T11:41:27;96679.63;;;19.31;44.14
30856;BME280;17570;0.000;0.000;2023-11-22T11:44:01;96679.80;;;19.29;44.03
30856;BME280;17570;0.000;0.000;2023-11-22T11:46:24;96675.34;;;19.30;44.00
30856;BME280;17570;0.000;0.000;2023-11-22T11:48:54;96661.38;;;19.29;44.20
30856;BME280;17570;0.000;0.000;2023-11-22T11:51:23;96653.31;;;19.31;44.16
30856;BME280;17570;0.000;0.000;2023-11-22T11:53:51;96669.72;;;19.33;44.05
30856;BME280;17570;0.000;0.000;2023-11-22T11:56:18;96676.45;;;19.35;43.73
30856;BME280;17570;0.000;0.000;2023-11-22T11:58:47;96677.07;;;19.37;43.43
30856;BME280;17570;0.000;0.000;2023-11-22T12:01:16;96680.71;;;19.36;43.63
30856;BME280;17570;0.000;0.000;2023-11-22T12:03:44;96687.59;;;19.37;43.82
30856;BME280;17570;0.000;0.000;2023-11-22T12:06:15;96690.03;;;19.39;43.73
30856;BME280;17570;0.000;0.000;2023-11-22T12:08:46;96683.60;;;19.42;43.74
30856;BME280;17570;0.000;0.000;2023-11-22T12:11:14;96680.16;;;19.41;43.74
30856;BME280;17570;0.000;0.000;2023-11-22T12:13:44;96686.04;;;19.43;43.85
30856;BME280;17570;0.000;0.000;2023-11-22T12:16:17;96685.03;;;19.44;43.58
30856;BME280;17570;0.000;0.000;2023-11-22T12:18:45;96682.40;;;19.44;43.73
30856;BME280;17570;0.000;0.000;2023-11-22T12:21:14;96679.05;;;19.50;43.55
30856;BME280;17570;0.000;0.000;2023-11-22T12:23:43;96696.20;;;19.61;43.43
30856;BME280;17570;0.000;0.000;2023-11-22T12:26:12;96689.38;;;19.67;43.26
30856;BME280;17570;0.000;0.000;2023-11-22T12:28:40;96696.50;;;19.87;44.02
30856;BME280;17570;0.000;0.000;2023-11-22T12:31:09;96691.09;;;19.96;44.62
30856;BME280;17570;0.000;0.000;2023-11-22T12:33:37;96701.47;;;19.97;44.02
30856;BME280;17570;0.000;0.000;2023-11-22T12:36:06;96697.83;;;19.98;43.91
30856;BME280;17570;0.000;0.000;2023-11-22T12:38:36;96694.98;;;20.00;43.45
30856;BME280;17570;0.000;0.000;2023-11-22T12:41:05;96695.19;;;19.98;43.54
30856;BME280;17570;0.000;0.000;2023-11-22T12:43:33;96696.81;;;19.99;43.34
30856;BME280;17570;0.000;0.000;2023-11-22T12:46:01;96699.28;;;20.01;43.22
30856;BME280;17570;0.000;0.000;2023-11-22T12:48:29;96698.63;;;19.99;43.03
30856;BME280;17570;0.000;0.000;2023-11-22T12:50:59;96703.09;;;19.98;42.99
30856;BME280;17570;0.000;0.000;2023-11-22T12:53:27;96708.16;;;20.00;42.67
30856;BME280;17570;0.000;0.000;2023-11-22T12:55:55;96708.98;;;20.00;42.57
30856;BME280;17570;0.000;0.000;2023-11-22T12:58:23;96718.70;;;20.00;42.66
30856;BME280;17570;0.000;0.000;2023-11-22T13:00:52;96721.34;;;20.00;42.37
30856;BME280;17570;0.000;0.000;2023-11-22T13:03:21;96725.18;;;19.97;42.37
30856;BME280;17570;0.000;0.000;2023-11-22T13:05:49;96727.17;;;19.95;42.08
30856;BME280;17570;0.000;0.000;2023-11-22T13:08:18;96723.30;;;20.12;42.66
30856;BME280;17570;0.000;0.000;2023-11-22T13:10:46;96736.09;;;20.37;43.27
30856;BME280;17570;0.000;0.000;2023-11-22T13:13:15;96732.48;;;20.38;43.00
30856;BME280;17570;0.000;0.000;2023-11-22T13:15:43;96732.64;;;20.36;42.85
30856;BME280;17570;0.000;0.000;2023-11-22T13:18:11;96735.80;;;20.25;43.18
30856;BME280;17570;0.000;0.000;2023-11-22T13:20:39;96742.39;;;20.15;43.26
30856;BME280;17570;0.000;0.000;2023-11-22T13:23:07;96746.45;;;20.17;42.90